RYR17EN LIMC-LIBD
Flight info
| Callsign | RYR17EN |
|---|---|
| Flight time | 1h 11m |
| Altitude | 35000 |
| Route | VAKON DCT IBUPU DCT NISIL DCT LUMAV DCT RUPAX DCT ALJUB DCT EKKEF DCT PERAV |
| Aircraft | B738/M-SDE2E3FGHIRWXY/LB1 |
Departure
| Time | 2026-04-23 21:37 |
|---|---|
| Airport | Milan Malpensa International Airport (LIMC) |
Arrival
| Time | 2026-04-23 22:48 |
|---|---|
| Airport | Bari Karol Wojtyła International Airport (LIBD) |
| Time | Latitude | Longitude | Altitude | Speed | Heading |
|---|---|---|---|---|---|
| 2026-04-23 20:20 | 45.62888 | 8.71669 | 739 ft | 0 kts | 246° |
| 2026-04-23 21:30 | 45.62893 | 8.71648 | 739 ft | 6 kts | 309° |
| 2026-04-23 21:30 | 45.62933 | 8.71646 | 740 ft | 6 kts | 21° |
| 2026-04-23 21:30 | 45.62958 | 8.71711 | 741 ft | 10 kts | 78° |
| 2026-04-23 21:30 | 45.62977 | 8.71836 | 741 ft | 15 kts | 78° |
| 2026-04-23 21:31 | 45.62994 | 8.71960 | 741 ft | 11 kts | 82° |
| 2026-04-23 21:31 | 45.62942 | 8.72061 | 738 ft | 17 kts | 167° |
| 2026-04-23 21:31 | 45.62814 | 8.72096 | 737 ft | 20 kts | 169° |
| 2026-04-23 21:31 | 45.62676 | 8.72135 | 734 ft | 21 kts | 168° |
| 2026-04-23 21:32 | 45.62511 | 8.72180 | 731 ft | 26 kts | 169° |
| 2026-04-23 21:32 | 45.62329 | 8.72231 | 730 ft | 28 kts | 169° |
| 2026-04-23 21:32 | 45.62130 | 8.72286 | 726 ft | 29 kts | 169° |
| 2026-04-23 21:32 | 45.61935 | 8.72341 | 721 ft | 28 kts | 169° |
| 2026-04-23 21:33 | 45.61730 | 8.72397 | 718 ft | 31 kts | 170° |
| 2026-04-23 21:33 | 45.61522 | 8.72454 | 717 ft | 31 kts | 169° |
| 2026-04-23 21:33 | 45.61314 | 8.72512 | 702 ft | 30 kts | 169° |
| 2026-04-23 21:33 | 45.61163 | 8.72553 | 705 ft | 17 kts | 169° |
| 2026-04-23 21:34 | 45.61082 | 8.72631 | 702 ft | 15 kts | 104° |
| 2026-04-23 21:34 | 45.61096 | 8.72788 | 697 ft | 20 kts | 79° |
| 2026-04-23 21:34 | 45.61134 | 8.73025 | 700 ft | 26 kts | 64° |
| 2026-04-23 21:34 | 45.61271 | 8.73182 | 703 ft | 25 kts | 32° |
| 2026-04-23 21:35 | 45.61420 | 8.73269 | 703 ft | 23 kts | 353° |
| 2026-04-23 21:35 | 45.61556 | 8.73230 | 705 ft | 14 kts | 357° |
| 2026-04-23 21:35 | 45.61622 | 8.73308 | 707 ft | 14 kts | 76° |
| 2026-04-23 21:35 | 45.61615 | 8.73475 | 703 ft | 20 kts | 122° |
| 2026-04-23 21:36 | 45.61719 | 8.73710 | 700 ft | 26 kts | 348° |
| 2026-04-23 21:36 | 45.62192 | 8.73579 | 717 ft | 111 kts | 349° |
| 2026-04-23 21:36 | 45.63182 | 8.73311 | 859 ft | 170 kts | 349° |
| 2026-04-23 21:37 | 45.64394 | 8.72955 | 1645 ft | 187 kts | 348° |
| 2026-04-23 21:37 | 45.65631 | 8.72636 | 2542 ft | 197 kts | 359° |
| 2026-04-23 21:37 | 45.66902 | 8.73429 | 3031 ft | 219 kts | 53° |
| 2026-04-23 21:37 | 45.67329 | 8.75530 | 3490 ft | 229 kts | 92° |
| 2026-04-23 21:38 | 45.66935 | 8.77800 | 3965 ft | 244 kts | 114° |
| 2026-04-23 21:38 | 45.66059 | 8.79992 | 4360 ft | 265 kts | 124° |
| 2026-04-23 21:38 | 45.65029 | 8.82176 | 5340 ft | 266 kts | 120° |
| 2026-04-23 21:38 | 45.64241 | 8.84607 | 6175 ft | 273 kts | 109° |
| 2026-04-23 21:39 | 45.63646 | 8.87198 | 7099 ft | 276 kts | 104° |
| 2026-04-23 21:39 | 45.63141 | 8.89846 | 8022 ft | 278 kts | 102° |
| 2026-04-23 21:39 | 45.62683 | 8.92543 | 8940 ft | 280 kts | 101° |
| 2026-04-23 21:39 | 45.62260 | 8.95237 | 9835 ft | 284 kts | 100° |
| 2026-04-23 21:40 | 45.61846 | 8.98024 | 10576 ft | 293 kts | 100° |
| 2026-04-23 21:40 | 45.61421 | 9.01007 | 10801 ft | 320 kts | 99° |
| 2026-04-23 21:40 | 45.60972 | 9.04240 | 11013 ft | 345 kts | 99° |
| 2026-04-23 21:40 | 45.60501 | 9.07687 | 11425 ft | 360 kts | 99° |
| 2026-04-23 21:41 | 45.60020 | 9.11234 | 12119 ft | 366 kts | 99° |
| 2026-04-23 21:41 | 45.59536 | 9.14820 | 12933 ft | 369 kts | 99° |
| 2026-04-23 21:41 | 45.59049 | 9.18436 | 13709 ft | 374 kts | 99° |
| 2026-04-23 21:41 | 45.58555 | 9.22107 | 14406 ft | 379 kts | 98° |
| 2026-04-23 21:42 | 45.58055 | 9.25820 | 15084 ft | 382 kts | 98° |
| 2026-04-23 21:42 | 45.57550 | 9.29562 | 15783 ft | 386 kts | 98° |
| 2026-04-23 21:42 | 45.57039 | 9.33342 | 16449 ft | 390 kts | 98° |
| 2026-04-23 21:42 | 45.56522 | 9.37163 | 17113 ft | 394 kts | 98° |
| 2026-04-23 21:43 | 45.55996 | 9.41032 | 17785 ft | 399 kts | 98° |
| 2026-04-23 21:43 | 45.55464 | 9.44935 | 18420 ft | 403 kts | 98° |
| 2026-04-23 21:43 | 45.54925 | 9.48884 | 18983 ft | 408 kts | 98° |
| 2026-04-23 21:43 | 45.54379 | 9.52873 | 19537 ft | 412 kts | 98° |
| 2026-04-23 21:44 | 45.53826 | 9.56893 | 20064 ft | 416 kts | 98° |
| 2026-04-23 21:44 | 45.53266 | 9.60962 | 20603 ft | 420 kts | 98° |
| 2026-04-23 21:44 | 45.52699 | 9.65060 | 21127 ft | 424 kts | 98° |
| 2026-04-23 21:44 | 45.52125 | 9.69204 | 21641 ft | 428 kts | 98° |
| 2026-04-23 21:45 | 45.51535 | 9.73444 | 22152 ft | 432 kts | 98° |
| 2026-04-23 21:45 | 45.50956 | 9.77600 | 22655 ft | 436 kts | 98° |
| 2026-04-23 21:45 | 45.50361 | 9.81850 | 23177 ft | 439 kts | 98° |
| 2026-04-23 21:45 | 45.49760 | 9.86135 | 23665 ft | 442 kts | 98° |
| 2026-04-23 21:46 | 45.49154 | 9.90446 | 24066 ft | 446 kts | 98° |
| 2026-04-23 21:46 | 45.48540 | 9.94810 | 24428 ft | 450 kts | 98° |
| 2026-04-23 21:46 | 45.47800 | 9.99178 | 24763 ft | 458 kts | 104° |
| 2026-04-23 21:46 | 45.46576 | 10.03399 | 25098 ft | 466 kts | 115° |
| 2026-04-23 21:47 | 45.44966 | 10.07436 | 25471 ft | 470 kts | 117° |
| 2026-04-23 21:47 | 45.43300 | 10.11456 | 25808 ft | 474 kts | 118° |
| 2026-04-23 21:47 | 45.41610 | 10.15514 | 26174 ft | 477 kts | 118° |
| 2026-04-23 21:47 | 45.39921 | 10.19591 | 26557 ft | 480 kts | 117° |
| 2026-04-23 21:48 | 45.38232 | 10.23702 | 26883 ft | 483 kts | 117° |
| 2026-04-23 21:48 | 45.36538 | 10.27851 | 27168 ft | 487 kts | 117° |
| 2026-04-23 21:48 | 45.34835 | 10.32036 | 27452 ft | 491 kts | 117° |
| 2026-04-23 21:48 | 45.33120 | 10.36251 | 27743 ft | 495 kts | 117° |
| 2026-04-23 21:49 | 45.31389 | 10.40499 | 28041 ft | 498 kts | 117° |
| 2026-04-23 21:49 | 45.29648 | 10.44764 | 28343 ft | 501 kts | 117° |
| 2026-04-23 21:49 | 45.27887 | 10.49070 | 28505 ft | 508 kts | 117° |
| 2026-04-23 21:49 | 45.26103 | 10.53425 | 28692 ft | 513 kts | 117° |
| 2026-04-23 21:50 | 45.24302 | 10.57810 | 29018 ft | 514 kts | 117° |
| 2026-04-23 21:50 | 45.22500 | 10.62187 | 29455 ft | 514 kts | 117° |
| 2026-04-23 21:50 | 45.20696 | 10.66563 | 29873 ft | 514 kts | 117° |
| 2026-04-23 21:50 | 45.18887 | 10.70950 | 30181 ft | 517 kts | 118° |
| 2026-04-23 21:51 | 45.17066 | 10.75360 | 30461 ft | 518 kts | 118° |
| 2026-04-23 21:51 | 45.15244 | 10.79758 | 30861 ft | 517 kts | 118° |
| 2026-04-23 21:51 | 45.13429 | 10.84122 | 31430 ft | 511 kts | 118° |
| 2026-04-23 21:51 | 45.11635 | 10.88424 | 32051 ft | 504 kts | 118° |
| 2026-04-23 21:52 | 45.09851 | 10.92700 | 32444 ft | 503 kts | 118° |
| 2026-04-23 21:52 | 45.08068 | 10.96969 | 32696 ft | 505 kts | 118° |
| 2026-04-23 21:52 | 45.06275 | 11.01258 | 32952 ft | 507 kts | 118° |
| 2026-04-23 21:52 | 45.04957 | 11.04404 | 33205 ft | 506 kts | 118° |
| 2026-04-23 21:53 | 45.04421 | 11.05683 | 33323 ft | 506 kts | 118° |
| 2026-04-23 21:53 | 45.02626 | 11.09960 | 33584 ft | 507 kts | 118° |
| 2026-04-23 21:53 | 45.00820 | 11.14260 | 33781 ft | 510 kts | 118° |
| 2026-04-23 21:53 | 44.99007 | 11.18569 | 34103 ft | 509 kts | 118° |
| 2026-04-23 21:54 | 44.97212 | 11.22858 | 34482 ft | 506 kts | 117° |
| 2026-04-23 21:54 | 44.95455 | 11.27157 | 34829 ft | 504 kts | 117° |
| 2026-04-23 21:54 | 44.93723 | 11.31442 | 35124 ft | 503 kts | 117° |
| 2026-04-23 21:54 | 44.91990 | 11.35733 | 35364 ft | 503 kts | 117° |
| 2026-04-23 21:55 | 44.90254 | 11.40011 | 35631 ft | 502 kts | 117° |
| 2026-04-23 21:55 | 44.88514 | 11.44277 | 35922 ft | 501 kts | 117° |
| 2026-04-23 21:55 | 44.86775 | 11.48525 | 36257 ft | 499 kts | 117° |
| 2026-04-23 21:55 | 44.85041 | 11.52749 | 36618 ft | 496 kts | 117° |
| 2026-04-23 21:56 | 44.83317 | 11.56944 | 36926 ft | 495 kts | 117° |
| 2026-04-23 21:56 | 44.81572 | 11.61119 | 37158 ft | 495 kts | 120° |
| 2026-04-23 21:56 | 44.79532 | 11.65042 | 37360 ft | 498 kts | 128° |
| 2026-04-23 21:56 | 44.77285 | 11.68753 | 37591 ft | 498 kts | 129° |
| 2026-04-23 21:57 | 44.74997 | 11.72412 | 37772 ft | 499 kts | 130° |
| 2026-04-23 21:57 | 44.72696 | 11.76061 | 38013 ft | 498 kts | 130° |
| 2026-04-23 21:57 | 44.70403 | 11.79712 | 38293 ft | 497 kts | 129° |
| 2026-04-23 21:57 | 44.68135 | 11.83349 | 38649 ft | 493 kts | 129° |
| 2026-04-23 21:58 | 44.65889 | 11.86974 | 38954 ft | 491 kts | 129° |
| 2026-04-23 21:58 | 44.63653 | 11.90601 | 39118 ft | 491 kts | 129° |
| 2026-04-23 21:58 | 44.61420 | 11.94228 | 39204 ft | 492 kts | 129° |
| 2026-04-23 21:59 | 44.56932 | 12.01521 | 39214 ft | 494 kts | 129° |
| 2026-04-23 21:59 | 44.52443 | 12.08792 | 39203 ft | 492 kts | 129° |
| 2026-04-23 22:00 | 44.45732 | 12.19618 | 39232 ft | 490 kts | 129° |
| 2026-04-23 22:00 | 44.41391 | 12.26599 | 39240 ft | 489 kts | 129° |
| 2026-04-23 22:01 | 44.36920 | 12.33769 | 39234 ft | 489 kts | 129° |
| 2026-04-23 22:01 | 44.32445 | 12.40929 | 39256 ft | 489 kts | 129° |
| 2026-04-23 22:02 | 44.27956 | 12.48093 | 39246 ft | 491 kts | 129° |
| 2026-04-23 22:02 | 44.23451 | 12.55265 | 39243 ft | 492 kts | 130° |
| 2026-04-23 22:03 | 44.18926 | 12.62449 | 39252 ft | 494 kts | 130° |
| 2026-04-23 22:03 | 44.14385 | 12.69641 | 39245 ft | 495 kts | 130° |
| 2026-04-23 22:04 | 44.09825 | 12.76846 | 39239 ft | 497 kts | 130° |
| 2026-04-23 22:04 | 44.05246 | 12.84062 | 39240 ft | 498 kts | 130° |
| 2026-04-23 22:05 | 44.00657 | 12.91274 | 39242 ft | 498 kts | 130° |
| 2026-04-23 22:05 | 43.96062 | 12.98477 | 39237 ft | 498 kts | 130° |
| 2026-04-23 22:06 | 43.91461 | 13.05673 | 39233 ft | 498 kts | 130° |
| 2026-04-23 22:06 | 43.86865 | 13.12842 | 39232 ft | 497 kts | 130° |
| 2026-04-23 22:07 | 43.82270 | 13.19992 | 39226 ft | 497 kts | 130° |
| 2026-04-23 22:07 | 43.77678 | 13.27118 | 39231 ft | 496 kts | 130° |
| 2026-04-23 22:08 | 43.73088 | 13.34225 | 39225 ft | 495 kts | 130° |
| 2026-04-23 22:08 | 43.68501 | 13.41310 | 39226 ft | 494 kts | 130° |
| 2026-04-23 22:09 | 43.63909 | 13.48383 | 39229 ft | 494 kts | 130° |
| 2026-04-23 22:09 | 43.59318 | 13.55439 | 39218 ft | 495 kts | 131° |
| 2026-04-23 22:10 | 43.55458 | 13.61356 | 39226 ft | 495 kts | 131° |
| 2026-04-23 22:10 | 43.50846 | 13.68412 | 39218 ft | 496 kts | 131° |
| 2026-04-23 22:11 | 43.46222 | 13.75469 | 39219 ft | 497 kts | 131° |
| 2026-04-23 22:11 | 43.41585 | 13.82528 | 39211 ft | 498 kts | 131° |
| 2026-04-23 22:12 | 43.36936 | 13.89587 | 39216 ft | 498 kts | 131° |
| 2026-04-23 22:12 | 43.32270 | 13.96655 | 39206 ft | 499 kts | 131° |
| 2026-04-23 22:13 | 43.27596 | 14.03717 | 39209 ft | 500 kts | 131° |
| 2026-04-23 22:13 | 43.22913 | 14.10775 | 39203 ft | 501 kts | 131° |
| 2026-04-23 22:14 | 43.18219 | 14.17833 | 39201 ft | 501 kts | 131° |
| 2026-04-23 22:14 | 43.13520 | 14.24880 | 39209 ft | 501 kts | 131° |
| 2026-04-23 22:15 | 43.08818 | 14.31916 | 39194 ft | 501 kts | 131° |
| 2026-04-23 22:15 | 43.04108 | 14.38946 | 39193 ft | 501 kts | 131° |
| 2026-04-23 22:16 | 42.99395 | 14.45962 | 39192 ft | 501 kts | 131° |
| 2026-04-23 22:16 | 42.94687 | 14.52955 | 39180 ft | 500 kts | 131° |
| 2026-04-23 22:17 | 42.89969 | 14.59945 | 39185 ft | 500 kts | 131° |
| 2026-04-23 22:17 | 42.85292 | 14.66858 | 39170 ft | 499 kts | 132° |
| 2026-04-23 22:18 | 42.80577 | 14.73811 | 39175 ft | 499 kts | 132° |
| 2026-04-23 22:18 | 42.75860 | 14.80748 | 39178 ft | 499 kts | 132° |
| 2026-04-23 22:19 | 42.71109 | 14.87719 | 39177 ft | 499 kts | 132° |
| 2026-04-23 22:19 | 42.66409 | 14.94600 | 38979 ft | 504 kts | 132° |
| 2026-04-23 22:20 | 42.63982 | 14.98149 | 38350 ft | 507 kts | 133° |
| 2026-04-23 22:20 | 42.61583 | 15.01650 | 37769 ft | 505 kts | 133° |
| 2026-04-23 22:20 | 42.59222 | 15.05091 | 37185 ft | 504 kts | 133° |
| 2026-04-23 22:20 | 42.56800 | 15.08618 | 36577 ft | 504 kts | 134° |
| 2026-04-23 22:21 | 42.54406 | 15.12099 | 35979 ft | 505 kts | 134° |
| 2026-04-23 22:21 | 42.52005 | 15.15586 | 35301 ft | 507 kts | 134° |
| 2026-04-23 22:21 | 42.49591 | 15.19086 | 34625 ft | 511 kts | 134° |
| 2026-04-23 22:21 | 42.47151 | 15.22622 | 33865 ft | 515 kts | 135° |
| 2026-04-23 22:22 | 42.44698 | 15.26169 | 33078 ft | 518 kts | 135° |
| 2026-04-23 22:22 | 42.42230 | 15.29737 | 32360 ft | 520 kts | 135° |
| 2026-04-23 22:22 | 42.39752 | 15.33313 | 31550 ft | 523 kts | 135° |
| 2026-04-23 22:22 | 42.37252 | 15.36918 | 30712 ft | 526 kts | 136° |
| 2026-04-23 22:23 | 42.34735 | 15.40541 | 29803 ft | 531 kts | 136° |
| 2026-04-23 22:23 | 42.32206 | 15.44180 | 29054 ft | 529 kts | 135° |
| 2026-04-23 22:23 | 42.29785 | 15.47896 | 28477 ft | 525 kts | 129° |
| 2026-04-23 22:23 | 42.27756 | 15.51975 | 27868 ft | 521 kts | 121° |
| 2026-04-23 22:24 | 42.25906 | 15.56154 | 27294 ft | 516 kts | 120° |
| 2026-04-23 22:24 | 42.24098 | 15.60299 | 26765 ft | 510 kts | 120° |
| 2026-04-23 22:24 | 42.22303 | 15.64393 | 26269 ft | 504 kts | 120° |
| 2026-04-23 22:24 | 42.20514 | 15.68426 | 25760 ft | 498 kts | 121° |
| 2026-04-23 22:25 | 42.18731 | 15.72398 | 25250 ft | 493 kts | 121° |
| 2026-04-23 22:25 | 42.16955 | 15.76323 | 24757 ft | 486 kts | 121° |
| 2026-04-23 22:25 | 42.15215 | 15.80147 | 24135 ft | 474 kts | 121° |
| 2026-04-23 22:25 | 42.13499 | 15.83911 | 23252 ft | 468 kts | 121° |
| 2026-04-23 22:26 | 42.11807 | 15.87618 | 22332 ft | 461 kts | 121° |
| 2026-04-23 22:26 | 42.10140 | 15.91271 | 21408 ft | 455 kts | 121° |
| 2026-04-23 22:26 | 42.08488 | 15.94886 | 20751 ft | 451 kts | 121° |
| 2026-04-23 22:26 | 42.06856 | 15.98453 | 20170 ft | 446 kts | 121° |
| 2026-04-23 22:27 | 42.05238 | 16.01987 | 19654 ft | 442 kts | 121° |
| 2026-04-23 22:27 | 42.03632 | 16.05491 | 19128 ft | 438 kts | 121° |
| 2026-04-23 22:27 | 42.02041 | 16.08957 | 18606 ft | 433 kts | 121° |
| 2026-04-23 22:27 | 42.00466 | 16.12385 | 18092 ft | 428 kts | 120° |
| 2026-04-23 22:28 | 41.98921 | 16.15743 | 17826 ft | 416 kts | 120° |
| 2026-04-23 22:28 | 41.97412 | 16.19018 | 17546 ft | 408 kts | 120° |
| 2026-04-23 22:28 | 41.95948 | 16.22193 | 17269 ft | 403 kts | 120° |
| 2026-04-23 22:28 | 41.94444 | 16.25457 | 17014 ft | 408 kts | 120° |
| 2026-04-23 22:29 | 41.92943 | 16.28708 | 16762 ft | 411 kts | 120° |
| 2026-04-23 22:29 | 41.91441 | 16.31958 | 16484 ft | 408 kts | 120° |
| 2026-04-23 22:29 | 41.89877 | 16.35118 | 16227 ft | 405 kts | 124° |
| 2026-04-23 22:29 | 41.88223 | 16.38097 | 15981 ft | 402 kts | 126° |
| 2026-04-23 22:30 | 41.86493 | 16.41089 | 15716 ft | 399 kts | 127° |
| 2026-04-23 22:30 | 41.84791 | 16.44015 | 15457 ft | 397 kts | 127° |
| 2026-04-23 22:30 | 41.83106 | 16.46930 | 15202 ft | 395 kts | 126° |
| 2026-04-23 22:30 | 41.81436 | 16.49844 | 14946 ft | 393 kts | 126° |
| 2026-04-23 22:31 | 41.79775 | 16.52757 | 14702 ft | 393 kts | 126° |
| 2026-04-23 22:31 | 41.78122 | 16.55664 | 14457 ft | 392 kts | 126° |
| 2026-04-23 22:31 | 41.76472 | 16.58566 | 14214 ft | 391 kts | 126° |
| 2026-04-23 22:31 | 41.74848 | 16.61421 | 13975 ft | 390 kts | 126° |
| 2026-04-23 22:32 | 41.73206 | 16.64306 | 13712 ft | 389 kts | 126° |
| 2026-04-23 22:32 | 41.71569 | 16.67178 | 13442 ft | 387 kts | 126° |
| 2026-04-23 22:32 | 41.69938 | 16.70038 | 13186 ft | 385 kts | 126° |
| 2026-04-23 22:32 | 41.68308 | 16.72871 | 12917 ft | 384 kts | 128° |
| 2026-04-23 22:33 | 41.66505 | 16.75501 | 12650 ft | 383 kts | 134° |
| 2026-04-23 22:33 | 41.64611 | 16.77985 | 12385 ft | 380 kts | 135° |
| 2026-04-23 22:33 | 41.62715 | 16.80434 | 12125 ft | 378 kts | 135° |
| 2026-04-23 22:33 | 41.60836 | 16.82876 | 11863 ft | 375 kts | 134° |
| 2026-04-23 22:34 | 41.58982 | 16.85311 | 11530 ft | 373 kts | 134° |
| 2026-04-23 22:34 | 41.57150 | 16.87735 | 11101 ft | 369 kts | 134° |
| 2026-04-23 22:34 | 41.55351 | 16.90121 | 10873 ft | 358 kts | 134° |
| 2026-04-23 22:34 | 41.53613 | 16.92426 | 10713 ft | 346 kts | 133° |
| 2026-04-23 22:35 | 41.52081 | 16.94835 | 10476 ft | 336 kts | 121° |
| 2026-04-23 22:35 | 41.50887 | 16.97462 | 10323 ft | 326 kts | 118° |
| 2026-04-23 22:35 | 41.49769 | 17.00041 | 10163 ft | 317 kts | 117° |
| 2026-04-23 22:35 | 41.48680 | 17.02548 | 10029 ft | 308 kts | 118° |
| 2026-04-23 22:36 | 41.47600 | 17.05008 | 9692 ft | 307 kts | 118° |
| 2026-04-23 22:36 | 41.46515 | 17.07451 | 9359 ft | 305 kts | 118° |
| 2026-04-23 22:36 | 41.45430 | 17.09876 | 9033 ft | 304 kts | 118° |
| 2026-04-23 22:36 | 41.44348 | 17.12283 | 8718 ft | 302 kts | 118° |
| 2026-04-23 22:37 | 41.43271 | 17.14671 | 8463 ft | 298 kts | 118° |
| 2026-04-23 22:37 | 41.42565 | 17.16234 | 8391 ft | 292 kts | 118° |
| 2026-04-23 22:37 | 41.42434 | 17.16523 | 8375 ft | 291 kts | 118° |
| 2026-04-23 22:38 | 41.41752 | 17.18030 | 8279 ft | 287 kts | 118° |
| 2026-04-23 22:39 | 41.40729 | 17.20292 | 8157 ft | 284 kts | 118° |
| 2026-04-23 22:39 | 41.39710 | 17.22544 | 8046 ft | 286 kts | 118° |
| 2026-04-23 22:39 | 41.38416 | 17.24575 | 7851 ft | 295 kts | 143° |
| 2026-04-23 22:39 | 41.36533 | 17.25746 | 7567 ft | 303 kts | 160° |
| 2026-04-23 22:40 | 41.34543 | 17.26681 | 7220 ft | 303 kts | 159° |
| 2026-04-23 22:40 | 41.32566 | 17.27619 | 6930 ft | 300 kts | 159° |
| 2026-04-23 22:40 | 41.28623 | 17.27497 | 6591 ft | 282 kts | 210° |
| 2026-04-23 22:41 | 41.27116 | 17.25921 | 6323 ft | 273 kts | 233° |
| 2026-04-23 22:41 | 41.26140 | 17.23829 | 6051 ft | 263 kts | 252° |
| 2026-04-23 22:41 | 41.25502 | 17.21573 | 5787 ft | 260 kts | 255° |
| 2026-04-23 22:41 | 41.24883 | 17.19319 | 5520 ft | 258 kts | 253° |
| 2026-04-23 22:42 | 41.24275 | 17.17083 | 5282 ft | 257 kts | 253° |
| 2026-04-23 22:42 | 41.23661 | 17.14861 | 5019 ft | 255 kts | 255° |
| 2026-04-23 22:42 | 41.23048 | 17.12653 | 4744 ft | 254 kts | 253° |
| 2026-04-23 22:42 | 41.22437 | 17.10469 | 4514 ft | 249 kts | 255° |
| 2026-04-23 22:43 | 41.21844 | 17.08350 | 4248 ft | 241 kts | 255° |
| 2026-04-23 22:43 | 41.21325 | 17.06275 | 3971 ft | 232 kts | 262° |
| 2026-04-23 22:43 | 41.21005 | 17.04226 | 3734 ft | 222 kts | 264° |
| 2026-04-23 22:43 | 41.20719 | 17.02235 | 3512 ft | 218 kts | 264° |
| 2026-04-23 22:44 | 41.20431 | 17.00279 | 3293 ft | 214 kts | 263° |
| 2026-04-23 22:44 | 41.20138 | 16.98372 | 3062 ft | 209 kts | 260° |
| 2026-04-23 22:44 | 41.19671 | 16.96566 | 2852 ft | 204 kts | 255° |
| 2026-04-23 22:44 | 41.19168 | 16.94830 | 2641 ft | 199 kts | 254° |
| 2026-04-23 22:45 | 41.18680 | 16.93139 | 2440 ft | 195 kts | 255° |
| 2026-04-23 22:45 | 41.18203 | 16.91462 | 2246 ft | 195 kts | 256° |
| 2026-04-23 22:45 | 41.17725 | 16.89777 | 2011 ft | 194 kts | 255° |
| 2026-04-23 22:45 | 41.17256 | 16.88127 | 1936 ft | 185 kts | 255° |
| 2026-04-23 22:46 | 41.16816 | 16.86601 | 1782 ft | 172 kts | 255° |
| 2026-04-23 22:46 | 41.16413 | 16.85131 | 1453 ft | 165 kts | 256° |
| 2026-04-23 22:46 | 41.16032 | 16.83768 | 1263 ft | 149 kts | 256° |
| 2026-04-23 22:46 | 41.15655 | 16.82510 | 921 ft | 142 kts | 257° |
| 2026-04-23 22:47 | 41.15320 | 16.81292 | 678 ft | 141 kts | 255° |
| 2026-04-23 22:47 | 41.14995 | 16.80064 | 538 ft | 141 kts | 252° |
| 2026-04-23 22:47 | 41.14648 | 16.78845 | 360 ft | 142 kts | 251° |
| 2026-04-23 22:47 | 41.14295 | 16.77617 | 178 ft | 142 kts | 252° |
| 2026-04-23 22:48 | 41.13974 | 16.76486 | 123 ft | 117 kts | 251° |
| 2026-04-23 22:48 | 41.13740 | 16.75629 | 153 ft | 81 kts | 250° |
| 2026-04-23 22:48 | 41.13585 | 16.75085 | 159 ft | 39 kts | 247° |
| 2026-04-23 22:48 | 41.13512 | 16.74867 | 164 ft | 24 kts | 247° |
| 2026-04-23 22:49 | 41.13444 | 16.74765 | 168 ft | 10 kts | 211° |
| 2026-04-23 22:49 | 41.13389 | 16.74792 | 171 ft | 10 kts | 121° |
| 2026-04-23 22:49 | 41.13355 | 16.74869 | 171 ft | 11 kts | 116° |
| 2026-04-23 22:49 | 41.13373 | 16.75028 | 168 ft | 25 kts | 70° |
| 2026-04-23 22:50 | 41.13417 | 16.75185 | 163 ft | 29 kts | 69° |
| 2026-04-23 22:50 | 41.13491 | 16.75445 | 158 ft | 30 kts | 69° |
| 2026-04-23 22:50 | 41.13562 | 16.75697 | 153 ft | 28 kts | 70° |
| 2026-04-23 22:50 | 41.13621 | 16.75910 | 148 ft | 21 kts | 74° |
| 2026-04-23 22:51 | 41.13580 | 16.76090 | 144 ft | 15 kts | 136° |
| 2026-04-23 22:51 | 41.13546 | 16.76147 | 145 ft | 3 kts | 114° |
| 2026-04-23 22:51 | 41.13537 | 16.76174 | 148 ft | 4 kts | 114° |
| 2026-04-23 22:51 | 41.13524 | 16.76215 | 145 ft | 5 kts | 115° |
| 2026-04-23 22:52 | 41.13505 | 16.76233 | 145 ft | 2 kts | 161° |
| 2026-04-23 22:52 | 41.13503 | 16.76234 | 145 ft | 0 kts | 161° |